sensor_id;sensor_type;location;lat;lon;timestamp;P1;durP1;ratioP1;P2;durP2;ratioP2
43793;SDS011;29414;44.798;20.366;2022-09-24T00:03:06;12.73;;;10.53;;
43793;SDS011;29414;44.798;20.366;2022-09-24T00:07:06;13.77;;;9.60;;
43793;SDS011;29414;44.798;20.366;2022-09-24T00:11:07;14.07;;;10.43;;
43793;SDS011;29414;44.798;20.366;2022-09-24T00:15:07;13.50;;;9.60;;
43793;SDS011;29414;44.798;20.366;2022-09-24T00:19:08;12.73;;;10.60;;
43793;SDS011;29414;44.798;20.366;2022-09-24T00:23:10;11.73;;;10.37;;
43793;SDS011;29414;44.798;20.366;2022-09-24T00:27:10;12.07;;;10.67;;
43793;SDS011;29414;44.798;20.366;2022-09-24T00:31:11;13.83;;;11.53;;
43793;SDS011;29414;44.798;20.366;2022-09-24T00:35:11;12.13;;;9.93;;
43793;SDS011;29414;44.798;20.366;2022-09-24T00:39:11;13.30;;;10.77;;
43793;SDS011;29414;44.798;20.366;2022-09-24T00:43:25;12.00;;;9.80;;
43793;SDS011;29414;44.798;20.366;2022-09-24T00:51:28;15.83;;;10.50;;
43793;SDS011;29414;44.798;20.366;2022-09-24T00:55:28;12.93;;;10.67;;
43793;SDS011;29414;44.798;20.366;2022-09-24T00:59:29;12.57;;;10.73;;
43793;SDS011;29414;44.798;20.366;2022-09-24T01:03:30;14.73;;;10.83;;
43793;SDS011;29414;44.798;20.366;2022-09-24T01:07:31;14.00;;;10.63;;
43793;SDS011;29414;44.798;20.366;2022-09-24T01:15:48;13.23;;;10.67;;
43793;SDS011;29414;44.798;20.366;2022-09-24T01:24:22;13.20;;;10.80;;
43793;SDS011;29414;44.798;20.366;2022-09-24T01:32:35;12.73;;;11.02;;
43793;SDS011;29414;44.798;20.366;2022-09-24T01:36:38;21.50;;;12.97;;
43793;SDS011;29414;44.798;20.366;2022-09-24T01:40:38;18.20;;;13.13;;
43793;SDS011;29414;44.798;20.366;2022-09-24T01:44:40;17.07;;;12.00;;
43793;SDS011;29414;44.798;20.366;2022-09-24T01:48:43;14.37;;;12.37;;
43793;SDS011;29414;44.798;20.366;2022-09-24T01:56:48;16.00;;;12.57;;
43793;SDS011;29414;44.798;20.366;2022-09-24T02:00:51;15.20;;;12.30;;
43793;SDS011;29414;44.798;20.366;2022-09-24T02:09:28;18.67;;;13.43;;
43793;SDS011;29414;44.798;20.366;2022-09-24T02:13:29;14.90;;;12.65;;
43793;SDS011;29414;44.798;20.366;2022-09-24T02:17:31;13.00;;;11.57;;
43793;SDS011;29414;44.798;20.366;2022-09-24T02:21:33;15.60;;;12.43;;
43793;SDS011;29414;44.798;20.366;2022-09-24T02:25:40;15.13;;;11.40;;
43793;SDS011;29414;44.798;20.366;2022-09-24T02:29:42;15.33;;;12.93;;
43793;SDS011;29414;44.798;20.366;2022-09-24T02:33:44;14.70;;;12.37;;
43793;SDS011;29414;44.798;20.366;2022-09-24T02:38:04;15.27;;;11.80;;
43793;SDS011;29414;44.798;20.366;2022-09-24T02:42:05;14.83;;;12.00;;
43793;SDS011;29414;44.798;20.366;2022-09-24T02:46:06;14.37;;;11.50;;
43793;SDS011;29414;44.798;20.366;2022-09-24T02:50:09;14.80;;;11.63;;
43793;SDS011;29414;44.798;20.366;2022-09-24T02:54:10;17.37;;;12.80;;
43793;SDS011;29414;44.798;20.366;2022-09-24T02:58:10;16.33;;;11.83;;
43793;SDS011;29414;44.798;20.366;2022-09-24T03:02:11;15.00;;;11.97;;
43793;SDS011;29414;44.798;20.366;2022-09-24T03:06:11;14.57;;;12.73;;
43793;SDS011;29414;44.798;20.366;2022-09-24T03:10:12;17.37;;;12.23;;
43793;SDS011;29414;44.798;20.366;2022-09-24T03:14:12;21.20;;;12.30;;
43793;SDS011;29414;44.798;20.366;2022-09-24T03:18:13;15.67;;;11.53;;
43793;SDS011;29414;44.798;20.366;2022-09-24T03:22:13;14.67;;;12.17;;
43793;SDS011;29414;44.798;20.366;2022-09-24T03:26:14;13.53;;;11.93;;
43793;SDS011;29414;44.798;20.366;2022-09-24T03:30:14;14.30;;;11.27;;
43793;SDS011;29414;44.798;20.366;2022-09-24T03:34:33;15.30;;;12.07;;
43793;SDS011;29414;44.798;20.366;2022-09-24T03:38:34;15.20;;;10.60;;
43793;SDS011;29414;44.798;20.366;2022-09-24T03:42:34;12.77;;;11.40;;
43793;SDS011;29414;44.798;20.366;2022-09-24T03:46:35;16.97;;;11.90;;
43793;SDS011;29414;44.798;20.366;2022-09-24T03:50:36;14.87;;;12.00;;
43793;SDS011;29414;44.798;20.366;2022-09-24T03:54:36;17.33;;;12.47;;
43793;SDS011;29414;44.798;20.366;2022-09-24T03:58:37;16.13;;;12.47;;
43793;SDS011;29414;44.798;20.366;2022-09-24T04:02:37;19.53;;;13.10;;
43793;SDS011;29414;44.798;20.366;2022-09-24T04:06:39;20.03;;;12.73;;
43793;SDS011;29414;44.798;20.366;2022-09-24T04:10:39;17.80;;;11.80;;
43793;SDS011;29414;44.798;20.366;2022-09-24T04:14:40;17.63;;;12.77;;
43793;SDS011;29414;44.798;20.366;2022-09-24T04:18:40;13.37;;;12.00;;
43793;SDS011;29414;44.798;20.366;2022-09-24T04:22:40;15.00;;;11.70;;
43793;SDS011;29414;44.798;20.366;2022-09-24T04:26:40;15.37;;;11.33;;
43793;SDS011;29414;44.798;20.366;2022-09-24T04:30:41;14.50;;;11.33;;
43793;SDS011;29414;44.798;20.366;2022-09-24T04:34:41;17.83;;;11.70;;
43793;SDS011;29414;44.798;20.366;2022-09-24T04:38:42;15.67;;;11.07;;
43793;SDS011;29414;44.798;20.366;2022-09-24T04:42:43;13.53;;;11.80;;
43793;SDS011;29414;44.798;20.366;2022-09-24T04:46:46;14.50;;;12.23;;
43793;SDS011;29414;44.798;20.366;2022-09-24T04:50:46;13.43;;;12.03;;
43793;SDS011;29414;44.798;20.366;2022-09-24T04:54:46;17.83;;;12.47;;
43793;SDS011;29414;44.798;20.366;2022-09-24T04:58:48;18.43;;;15.90;;
43793;SDS011;29414;44.798;20.366;2022-09-24T05:02:56;22.73;;;14.43;;
43793;SDS011;29414;44.798;20.366;2022-09-24T05:06:57;19.40;;;13.47;;
43793;SDS011;29414;44.798;20.366;2022-09-24T05:10:57;20.73;;;14.30;;
43793;SDS011;29414;44.798;20.366;2022-09-24T05:14:57;18.77;;;13.07;;
43793;SDS011;29414;44.798;20.366;2022-09-24T05:18:58;17.23;;;12.10;;
43793;SDS011;29414;44.798;20.366;2022-09-24T05:22:58;19.40;;;13.60;;
43793;SDS011;29414;44.798;20.366;2022-09-24T05:26:59;19.57;;;13.93;;
43793;SDS011;29414;44.798;20.366;2022-09-24T05:31:08;17.77;;;14.60;;
43793;SDS011;29414;44.798;20.366;2022-09-24T05:35:09;21.40;;;13.90;;
43793;SDS011;29414;44.798;20.366;2022-09-24T05:39:10;20.73;;;16.73;;
43793;SDS011;29414;44.798;20.366;2022-09-24T05:43:12;21.07;;;15.37;;
43793;SDS011;29414;44.798;20.366;2022-09-24T05:47:12;34.70;;;24.53;;
43793;SDS011;29414;44.798;20.366;2022-09-24T05:51:12;36.83;;;27.00;;
43793;SDS011;29414;44.798;20.366;2022-09-24T05:55:13;22.40;;;17.90;;
43793;SDS011;29414;44.798;20.366;2022-09-24T05:59:13;21.13;;;15.63;;
43793;SDS011;29414;44.798;20.366;2022-09-24T06:03:14;16.40;;;14.13;;
43793;SDS011;29414;44.798;20.366;2022-09-24T06:07:15;18.30;;;14.13;;
43793;SDS011;29414;44.798;20.366;2022-09-24T06:11:16;18.87;;;15.80;;
43793;SDS011;29414;44.798;20.366;2022-09-24T06:15:16;18.47;;;15.00;;
43793;SDS011;29414;44.798;20.366;2022-09-24T06:19:17;16.40;;;14.20;;
43793;SDS011;29414;44.798;20.366;2022-09-24T06:23:17;19.37;;;15.07;;
43793;SDS011;29414;44.798;20.366;2022-09-24T06:27:17;17.40;;;13.57;;
43793;SDS011;29414;44.798;20.366;2022-09-24T06:31:17;18.53;;;13.97;;
43793;SDS011;29414;44.798;20.366;2022-09-24T06:35:18;16.40;;;14.20;;
43793;SDS011;29414;44.798;20.366;2022-09-24T06:39:19;24.07;;;15.63;;
43793;SDS011;29414;44.798;20.366;2022-09-24T06:43:19;21.80;;;17.07;;
43793;SDS011;29414;44.798;20.366;2022-09-24T06:47:20;22.43;;;14.40;;
43793;SDS011;29414;44.798;20.366;2022-09-24T06:51:20;19.63;;;15.20;;
43793;SDS011;29414;44.798;20.366;2022-09-24T06:55:20;22.37;;;17.80;;
43793;SDS011;29414;44.798;20.366;2022-09-24T06:59:21;23.83;;;16.50;;
43793;SDS011;29414;44.798;20.366;2022-09-24T07:03:21;24.77;;;15.83;;
43793;SDS011;29414;44.798;20.366;2022-09-24T07:07:21;20.63;;;15.43;;
43793;SDS011;29414;44.798;20.366;2022-09-24T07:11:34;17.67;;;10.27;;
43793;SDS011;29414;44.798;20.366;2022-09-24T07:15:35;18.87;;;10.87;;
43793;SDS011;29414;44.798;20.366;2022-09-24T07:19:35;16.37;;;11.10;;
43793;SDS011;29414;44.798;20.366;2022-09-24T07:23:37;15.00;;;9.47;;
43793;SDS011;29414;44.798;20.366;2022-09-24T07:27:37;11.00;;;7.38;;
43793;SDS011;29414;44.798;20.366;2022-09-24T07:31:38;12.43;;;7.15;;
43793;SDS011;29414;44.798;20.366;2022-09-24T07:35:38;12.90;;;8.73;;
43793;SDS011;29414;44.798;20.366;2022-09-24T07:39:39;8.25;;;6.95;;
43793;SDS011;29414;44.798;20.366;2022-09-24T07:43:39;12.32;;;7.07;;
43793;SDS011;29414;44.798;20.366;2022-09-24T07:47:39;10.05;;;6.82;;
43793;SDS011;29414;44.798;20.366;2022-09-24T07:51:39;8.05;;;5.70;;
43793;SDS011;29414;44.798;20.366;2022-09-24T07:55:40;8.50;;;4.85;;
43793;SDS011;29414;44.798;20.366;2022-09-24T07:59:40;6.57;;;4.95;;
43793;SDS011;29414;44.798;20.366;2022-09-24T08:03:41;8.32;;;6.00;;
43793;SDS011;29414;44.798;20.366;2022-09-24T08:07:41;13.77;;;6.00;;
43793;SDS011;29414;44.798;20.366;2022-09-24T08:11:41;14.10;;;6.68;;
43793;SDS011;29414;44.798;20.366;2022-09-24T08:15:42;9.23;;;6.40;;
43793;SDS011;29414;44.798;20.366;2022-09-24T08:19:42;9.95;;;6.40;;
43793;SDS011;29414;44.798;20.366;2022-09-24T08:23:45;11.40;;;6.85;;
43793;SDS011;29414;44.798;20.366;2022-09-24T08:27:48;10.85;;;6.65;;
43793;SDS011;29414;44.798;20.366;2022-09-24T08:31:48;11.68;;;7.35;;
43793;SDS011;29414;44.798;20.366;2022-09-24T08:35:48;12.70;;;6.65;;
43793;SDS011;29414;44.798;20.366;2022-09-24T08:39:49;7.65;;;6.38;;
43793;SDS011;29414;44.798;20.366;2022-09-24T08:48:13;15.02;;;6.50;;
43793;SDS011;29414;44.798;20.366;2022-09-24T08:56:17;11.82;;;5.90;;
43793;SDS011;29414;44.798;20.366;2022-09-24T09:00:18;7.50;;;5.10;;
43793;SDS011;29414;44.798;20.366;2022-09-24T09:04:25;7.95;;;5.53;;
43793;SDS011;29414;44.798;20.366;2022-09-24T09:08:35;5.97;;;4.43;;
43793;SDS011;29414;44.798;20.366;2022-09-24T09:12:39;6.97;;;4.25;;
43793;SDS011;29414;44.798;20.366;2022-09-24T09:16:45;6.22;;;4.30;;
43793;SDS011;29414;44.798;20.366;2022-09-24T09:20:46;7.15;;;4.13;;
43793;SDS011;29414;44.798;20.366;2022-09-24T09:24:49;3.97;;;3.10;;
43793;SDS011;29414;44.798;20.366;2022-09-24T09:28:51;4.03;;;3.40;;
43793;SDS011;29414;44.798;20.366;2022-09-24T09:37:01;8.40;;;4.20;;
43793;SDS011;29414;44.798;20.366;2022-09-24T09:45:29;4.45;;;3.92;;
43793;SDS011;29414;44.798;20.366;2022-09-24T09:49:33;4.95;;;3.53;;
43793;SDS011;29414;44.798;20.366;2022-09-24T09:53:33;6.78;;;3.88;;
43793;SDS011;29414;44.798;20.366;2022-09-24T09:57:33;5.20;;;3.15;;
43793;SDS011;29414;44.798;20.366;2022-09-24T10:01:39;5.72;;;3.10;;
43793;SDS011;29414;44.798;20.366;2022-09-24T10:05:40;5.85;;;3.70;;
43793;SDS011;29414;44.798;20.366;2022-09-24T10:09:40;4.25;;;2.92;;
43793;SDS011;29414;44.798;20.366;2022-09-24T10:13:41;5.68;;;3.22;;
43793;SDS011;29414;44.798;20.366;2022-09-24T10:17:42;14.00;;;4.47;;
43793;SDS011;29414;44.798;20.366;2022-09-24T10:21:43;2.80;;;2.42;;
43793;SDS011;29414;44.798;20.366;2022-09-24T10:25:48;2.20;;;2.10;;
43793;SDS011;29414;44.798;20.366;2022-09-24T10:29:51;3.20;;;2.95;;
43793;SDS011;29414;44.798;20.366;2022-09-24T10:34:20;4.13;;;2.50;;
43793;SDS011;29414;44.798;20.366;2022-09-24T10:38:23;4.30;;;2.50;;
43793;SDS011;29414;44.798;20.366;2022-09-24T10:42:24;4.00;;;2.55;;
43793;SDS011;29414;44.798;20.366;2022-09-24T10:58:51;3.25;;;2.33;;
43793;SDS011;29414;44.798;20.366;2022-09-24T11:15:43;1.55;;;1.45;;
43793;SDS011;29414;44.798;20.366;2022-09-24T11:32:03;2.45;;;1.40;;
43793;SDS011;29414;44.798;20.366;2022-09-24T11:36:07;4.47;;;1.50;;
43793;SDS011;29414;44.798;20.366;2022-09-24T11:52:28;4.48;;;1.14;;
43793;SDS011;29414;44.798;20.366;2022-09-24T12:00:35;1.82;;;1.40;;
43793;SDS011;29414;44.798;20.366;2022-09-24T12:12:40;1.32;;;0.94;;
43793;SDS011;29414;44.798;20.366;2022-09-24T12:16:42;3.08;;;1.63;;
43793;SDS011;29414;44.798;20.366;2022-09-24T12:20:50;2.25;;;1.27;;
43793;SDS011;29414;44.798;20.366;2022-09-24T12:24:52;3.70;;;1.10;;
43793;SDS011;29414;44.798;20.366;2022-09-24T12:28:57;1.65;;;1.10;;
43793;SDS011;29414;44.798;20.366;2022-09-24T12:37:30;1.20;;;1.10;;
43793;SDS011;29414;44.798;20.366;2022-09-24T12:41:34;3.30;;;2.03;;
43793;SDS011;29414;44.798;20.366;2022-09-24T12:45:36;7.22;;;1.50;;
43793;SDS011;29414;44.798;20.366;2022-09-24T12:49:37;2.83;;;1.75;;
43793;SDS011;29414;44.798;20.366;2022-09-24T12:53:39;4.15;;;1.63;;
43793;SDS011;29414;44.798;20.366;2022-09-24T12:57:40;3.42;;;2.75;;
43793;SDS011;29414;44.798;20.366;2022-09-24T13:01:41;2.97;;;1.77;;
43793;SDS011;29414;44.798;20.366;2022-09-24T13:09:41;3.96;;;2.14;;
43793;SDS011;29414;44.798;20.366;2022-09-24T13:13:43;2.67;;;1.73;;
43793;SDS011;29414;44.798;20.366;2022-09-24T13:17:43;4.20;;;1.92;;
43793;SDS011;29414;44.798;20.366;2022-09-24T13:21:51;2.45;;;1.75;;
43793;SDS011;29414;44.798;20.366;2022-09-24T13:25:56;2.30;;;1.60;;
43793;SDS011;29414;44.798;20.366;2022-09-24T13:30:39;3.22;;;2.30;;
43793;SDS011;29414;44.798;20.366;2022-09-24T13:34:27;2.15;;;1.52;;
43793;SDS011;29414;44.798;20.366;2022-09-24T13:38:29;3.13;;;1.50;;
43793;SDS011;29414;44.798;20.366;2022-09-24T13:42:38;3.58;;;1.77;;
43793;SDS011;29414;44.798;20.366;2022-09-24T13:46:44;2.95;;;1.60;;
43793;SDS011;29414;44.798;20.366;2022-09-24T13:50:47;8.38;;;2.08;;
43793;SDS011;29414;44.798;20.366;2022-09-24T13:54:52;14.70;;;3.40;;
43793;SDS011;29414;44.798;20.366;2022-09-24T13:59:02;8.00;;;3.13;;
43793;SDS011;29414;44.798;20.366;2022-09-24T14:03:19;4.05;;;2.58;;
43793;SDS011;29414;44.798;20.366;2022-09-24T14:07:20;7.25;;;3.08;;
43793;SDS011;29414;44.798;20.366;2022-09-24T14:11:22;12.13;;;4.65;;
43793;SDS011;29414;44.798;20.366;2022-09-24T14:15:26;5.80;;;2.80;;
43793;SDS011;29414;44.798;20.366;2022-09-24T14:19:26;3.28;;;1.90;;
43793;SDS011;29414;44.798;20.366;2022-09-24T14:23:27;10.90;;;2.08;;
43793;SDS011;29414;44.798;20.366;2022-09-24T14:27:30;8.52;;;2.42;;
43793;SDS011;29414;44.798;20.366;2022-09-24T14:31:32;14.50;;;2.70;;
43793;SDS011;29414;44.798;20.366;2022-09-24T14:35:36;6.97;;;2.05;;
43793;SDS011;29414;44.798;20.366;2022-09-24T14:39:39;4.37;;;2.27;;
43793;SDS011;29414;44.798;20.366;2022-09-24T14:43:41;14.32;;;2.78;;
43793;SDS011;29414;44.798;20.366;2022-09-24T14:47:44;12.63;;;3.53;;
43793;SDS011;29414;44.798;20.366;2022-09-24T14:55:54;4.60;;;2.00;;
43793;SDS011;29414;44.798;20.366;2022-09-24T14:59:54;11.15;;;2.95;;
43793;SDS011;29414;44.798;20.366;2022-09-24T15:03:56;7.05;;;2.33;;
43793;SDS011;29414;44.798;20.366;2022-09-24T15:12:19;13.63;;;3.72;;
43793;SDS011;29414;44.798;20.366;2022-09-24T15:16:25;10.45;;;2.38;;
43793;SDS011;29414;44.798;20.366;2022-09-24T15:20:26;2.40;;;2.17;;
43793;SDS011;29414;44.798;20.366;2022-09-24T15:24:27;4.00;;;2.10;;
43793;SDS011;29414;44.798;20.366;2022-09-24T15:28:28;3.47;;;2.50;;
43793;SDS011;29414;44.798;20.366;2022-09-24T15:32:29;4.60;;;4.20;;
43793;SDS011;29414;44.798;20.366;2022-09-24T15:36:30;5.95;;;2.70;;
43793;SDS011;29414;44.798;20.366;2022-09-24T15:40:30;2.88;;;2.13;;
43793;SDS011;29414;44.798;20.366;2022-09-24T15:44:32;6.35;;;1.83;;
43793;SDS011;29414;44.798;20.366;2022-09-24T15:48:33;8.25;;;3.55;;
43793;SDS011;29414;44.798;20.366;2022-09-24T15:52:41;7.10;;;2.53;;
43793;SDS011;29414;44.798;20.366;2022-09-24T15:56:43;15.32;;;7.82;;
43793;SDS011;29414;44.798;20.366;2022-09-24T16:00:43;11.52;;;5.65;;
43793;SDS011;29414;44.798;20.366;2022-09-24T16:04:43;14.05;;;5.15;;
43793;SDS011;29414;44.798;20.366;2022-09-24T16:08:44;6.78;;;4.55;;
43793;SDS011;29414;44.798;20.366;2022-09-24T16:12:44;8.07;;;5.22;;
43793;SDS011;29414;44.798;20.366;2022-09-24T16:16:44;7.53;;;4.65;;
43793;SDS011;29414;44.798;20.366;2022-09-24T16:20:44;10.78;;;5.66;;
43793;SDS011;29414;44.798;20.366;2022-09-24T16:24:46;8.57;;;5.95;;
43793;SDS011;29414;44.798;20.366;2022-09-24T16:28:46;9.35;;;5.75;;
43793;SDS011;29414;44.798;20.366;2022-09-24T16:32:49;8.70;;;7.03;;
43793;SDS011;29414;44.798;20.366;2022-09-24T16:36:49;8.90;;;5.47;;
43793;SDS011;29414;44.798;20.366;2022-09-24T16:40:57;7.97;;;5.05;;
43793;SDS011;29414;44.798;20.366;2022-09-24T16:44:57;7.97;;;5.05;;
43793;SDS011;29414;44.798;20.366;2022-09-24T16:48:58;9.68;;;4.18;;
43793;SDS011;29414;44.798;20.366;2022-09-24T16:52:58;7.50;;;4.63;;
43793;SDS011;29414;44.798;20.366;2022-09-24T16:56:58;9.77;;;5.75;;
43793;SDS011;29414;44.798;20.366;2022-09-24T17:01:07;8.10;;;5.93;;
43793;SDS011;29414;44.798;20.366;2022-09-24T17:05:07;17.20;;;9.48;;
43793;SDS011;29414;44.798;20.366;2022-09-24T17:09:08;12.75;;;7.30;;
43793;SDS011;29414;44.798;20.366;2022-09-24T17:13:26;14.35;;;7.22;;
43793;SDS011;29414;44.798;20.366;2022-09-24T17:17:27;14.85;;;8.20;;
43793;SDS011;29414;44.798;20.366;2022-09-24T17:21:30;25.88;;;12.57;;
43793;SDS011;29414;44.798;20.366;2022-09-24T17:25:30;24.45;;;13.40;;
43793;SDS011;29414;44.798;20.366;2022-09-24T17:29:30;22.92;;;12.90;;
43793;SDS011;29414;44.798;20.366;2022-09-24T17:33:31;22.63;;;13.32;;
43793;SDS011;29414;44.798;20.366;2022-09-24T17:37:31;23.50;;;12.77;;
43793;SDS011;29414;44.798;20.366;2022-09-24T17:41:32;29.33;;;17.52;;
43793;SDS011;29414;44.798;20.366;2022-09-24T17:45:32;27.25;;;15.85;;
43793;SDS011;29414;44.798;20.366;2022-09-24T17:49:33;26.95;;;13.82;;
43793;SDS011;29414;44.798;20.366;2022-09-24T17:53:34;25.85;;;15.57;;
43793;SDS011;29414;44.798;20.366;2022-09-24T17:57:34;28.58;;;16.55;;
43793;SDS011;29414;44.798;20.366;2022-09-24T18:01:35;32.40;;;20.45;;
43793;SDS011;29414;44.798;20.366;2022-09-24T18:05:36;35.70;;;19.50;;
43793;SDS011;29414;44.798;20.366;2022-09-24T18:09:36;33.55;;;17.63;;
43793;SDS011;29414;44.798;20.366;2022-09-24T18:13:37;31.63;;;19.10;;
43793;SDS011;29414;44.798;20.366;2022-09-24T18:17:37;25.33;;;13.82;;
43793;SDS011;29414;44.798;20.366;2022-09-24T18:21:38;28.10;;;16.05;;
43793;SDS011;29414;44.798;20.366;2022-09-24T18:25:38;28.52;;;16.67;;
43793;SDS011;29414;44.798;20.366;2022-09-24T18:29:39;27.02;;;15.75;;
43793;SDS011;29414;44.798;20.366;2022-09-24T18:33:40;29.88;;;16.60;;
43793;SDS011;29414;44.798;20.366;2022-09-24T18:37:41;24.25;;;16.27;;
43793;SDS011;29414;44.798;20.366;2022-09-24T18:41:41;16.88;;;13.10;;
43793;SDS011;29414;44.798;20.366;2022-09-24T18:45:43;21.85;;;13.77;;
43793;SDS011;29414;44.798;20.366;2022-09-24T18:49:43;20.38;;;12.25;;
43793;SDS011;29414;44.798;20.366;2022-09-24T18:53:44;18.08;;;11.50;;
43793;SDS011;29414;44.798;20.366;2022-09-24T18:57:44;17.58;;;13.27;;
43793;SDS011;29414;44.798;20.366;2022-09-24T19:01:45;16.60;;;10.88;;
43793;SDS011;29414;44.798;20.366;2022-09-24T19:05:46;24.92;;;12.60;;
43793;SDS011;29414;44.798;20.366;2022-09-24T19:09:46;15.73;;;12.57;;
43793;SDS011;29414;44.798;20.366;2022-09-24T19:13:47;17.67;;;12.90;;
43793;SDS011;29414;44.798;20.366;2022-09-24T19:17:48;19.90;;;11.35;;
43793;SDS011;29414;44.798;20.366;2022-09-24T19:21:52;15.93;;;12.02;;
43793;SDS011;29414;44.798;20.366;2022-09-24T19:25:57;17.23;;;10.98;;
43793;SDS011;29414;44.798;20.366;2022-09-24T19:29:58;18.30;;;10.80;;
43793;SDS011;29414;44.798;20.366;2022-09-24T19:34:00;14.13;;;10.82;;
43793;SDS011;29414;44.798;20.366;2022-09-24T19:38:02;13.80;;;10.27;;
43793;SDS011;29414;44.798;20.366;2022-09-24T19:42:02;15.68;;;9.75;;
43793;SDS011;29414;44.798;20.366;2022-09-24T19:46:04;14.25;;;10.85;;
43793;SDS011;29414;44.798;20.366;2022-09-24T19:50:04;18.17;;;10.13;;
43793;SDS011;29414;44.798;20.366;2022-09-24T19:54:05;44.25;;;29.88;;
43793;SDS011;29414;44.798;20.366;2022-09-24T19:58:06;38.50;;;23.90;;
43793;SDS011;29414;44.798;20.366;2022-09-24T20:02:08;16.92;;;12.93;;
43793;SDS011;29414;44.798;20.366;2022-09-24T20:06:09;21.08;;;14.50;;
43793;SDS011;29414;44.798;20.366;2022-09-24T20:10:10;25.40;;;16.15;;
43793;SDS011;29414;44.798;20.366;2022-09-24T20:14:10;17.55;;;12.68;;
43793;SDS011;29414;44.798;20.366;2022-09-24T20:18:12;47.45;;;34.47;;
43793;SDS011;29414;44.798;20.366;2022-09-24T20:22:12;43.55;;;31.80;;
43793;SDS011;29414;44.798;20.366;2022-09-24T20:26:13;23.85;;;18.10;;
43793;SDS011;29414;44.798;20.366;2022-09-24T20:30:33;31.52;;;23.02;;
43793;SDS011;29414;44.798;20.366;2022-09-24T20:34:34;28.17;;;19.20;;
43793;SDS011;29414;44.798;20.366;2022-09-24T20:38:34;33.42;;;24.52;;
43793;SDS011;29414;44.798;20.366;2022-09-24T20:42:36;28.05;;;22.80;;
43793;SDS011;29414;44.798;20.366;2022-09-24T20:46:36;35.15;;;23.02;;
43793;SDS011;29414;44.798;20.366;2022-09-24T20:50:38;32.55;;;24.45;;
43793;SDS011;29414;44.798;20.366;2022-09-24T20:54:38;32.85;;;22.38;;
43793;SDS011;29414;44.798;20.366;2022-09-24T20:58:39;27.83;;;21.98;;
43793;SDS011;29414;44.798;20.366;2022-09-24T21:02:39;29.65;;;22.42;;
43793;SDS011;29414;44.798;20.366;2022-09-24T21:06:40;31.85;;;25.65;;
43793;SDS011;29414;44.798;20.366;2022-09-24T21:10:41;32.95;;;22.25;;
43793;SDS011;29414;44.798;20.366;2022-09-24T21:14:41;26.05;;;19.33;;
43793;SDS011;29414;44.798;20.366;2022-09-24T21:18:42;34.20;;;23.46;;
43793;SDS011;29414;44.798;20.366;2022-09-24T21:22:45;29.10;;;22.65;;
43793;SDS011;29414;44.798;20.366;2022-09-24T21:26:46;29.17;;;21.52;;
43793;SDS011;29414;44.798;20.366;2022-09-24T21:30:55;34.22;;;23.15;;
43793;SDS011;29414;44.798;20.366;2022-09-24T21:34:57;39.13;;;21.83;;
43793;SDS011;29414;44.798;20.366;2022-09-24T21:39:14;31.80;;;21.52;;
43793;SDS011;29414;44.798;20.366;2022-09-24T21:43:14;31.52;;;20.80;;
43793;SDS011;29414;44.798;20.366;2022-09-24T21:47:14;20.58;;;14.88;;
43793;SDS011;29414;44.798;20.366;2022-09-24T21:51:15;19.58;;;13.98;;
43793;SDS011;29414;44.798;20.366;2022-09-24T21:55:20;20.10;;;13.63;;
43793;SDS011;29414;44.798;20.366;2022-09-24T21:59:20;19.55;;;13.40;;
43793;SDS011;29414;44.798;20.366;2022-09-24T22:03:39;18.25;;;12.40;;
43793;SDS011;29414;44.798;20.366;2022-09-24T22:07:39;29.95;;;21.05;;
43793;SDS011;29414;44.798;20.366;2022-09-24T22:11:39;22.63;;;15.90;;
43793;SDS011;29414;44.798;20.366;2022-09-24T22:15:40;19.85;;;15.10;;
43793;SDS011;29414;44.798;20.366;2022-09-24T22:19:42;18.80;;;15.02;;
43793;SDS011;29414;44.798;20.366;2022-09-24T22:23:43;22.80;;;16.00;;
43793;SDS011;29414;44.798;20.366;2022-09-24T22:27:43;26.15;;;22.25;;
43793;SDS011;29414;44.798;20.366;2022-09-24T22:31:43;44.40;;;30.88;;
43793;SDS011;29414;44.798;20.366;2022-09-24T22:35:44;20.55;;;14.95;;
43793;SDS011;29414;44.798;20.366;2022-09-24T22:39:49;32.83;;;23.85;;
43793;SDS011;29414;44.798;20.366;2022-09-24T22:43:49;30.95;;;22.13;;
43793;SDS011;29414;44.798;20.366;2022-09-24T22:47:51;20.40;;;16.95;;
43793;SDS011;29414;44.798;20.366;2022-09-24T22:51:53;24.92;;;18.17;;
43793;SDS011;29414;44.798;20.366;2022-09-24T23:00:03;23.42;;;17.02;;
43793;SDS011;29414;44.798;20.366;2022-09-24T23:04:04;25.60;;;20.15;;
43793;SDS011;29414;44.798;20.366;2022-09-24T23:08:05;28.50;;;17.80;;
43793;SDS011;29414;44.798;20.366;2022-09-24T23:12:05;24.67;;;17.60;;
43793;SDS011;29414;44.798;20.366;2022-09-24T23:20:11;21.92;;;15.23;;
43793;SDS011;29414;44.798;20.366;2022-09-24T23:24:17;19.38;;;15.55;;
43793;SDS011;29414;44.798;20.366;2022-09-24T23:28:18;22.65;;;18.13;;
43793;SDS011;29414;44.798;20.366;2022-09-24T23:32:18;23.40;;;15.95;;
43793;SDS011;29414;44.798;20.366;2022-09-24T23:36:18;23.35;;;16.77;;
43793;SDS011;29414;44.798;20.366;2022-09-24T23:40:19;20.20;;;15.43;;
43793;SDS011;29414;44.798;20.366;2022-09-24T23:44:19;16.83;;;13.32;;
43793;SDS011;29414;44.798;20.366;2022-09-24T23:48:19;23.33;;;15.43;;
43793;SDS011;29414;44.798;20.366;2022-09-24T23:52:20;22.80;;;17.65;;
43793;SDS011;29414;44.798;20.366;2022-09-24T23:56:20;23.38;;;17.27;;
